Time;durP1;ratioP1;P1;durP2;ratioP2;P2;SDS_P1;SDS_P2;PMS_P1;PMS_P2;Temp;Humidity;BMP_temperature;BMP_pressure;BME280_temperature;BME280_humidity;BME280_pressure;Samples;Min_cycle;Max_cycle;Signal;HPM_P1;HPM_P2
2024/01/04 00:00:15;;;;;;;;;;;19.60;62.80;;;;;;4997314;28;19925;-65
2024/01/04 00:02:42;;;;;;;;;;;19.60;62.80;;;;;;4998345;28;20011;-65
2024/01/04 00:05:08;;;;;;;;;;;19.60;62.80;;;;;;5015197;28;20324;-65
2024/01/04 00:07:33;;;;;;;;;;;19.60;62.70;;;;;;5015310;28;19936;-66
2024/01/04 00:09:59;;;;;;;;;;;19.60;62.70;;;;;;5014965;28;19933;-65
2024/01/04 00:12:24;;;;;;;;;;;19.60;62.80;;;;;;5015273;28;20011;-65
2024/01/04 00:14:50;;;;;;;;;;;19.60;62.70;;;;;;4997918;28;19926;-66
2024/01/04 00:17:15;;;;;;;;;;;19.50;62.70;;;;;;4997920;28;19957;-66
2024/01/04 00:19:41;;;;;;;;;;;19.50;62.70;;;;;;4997548;28;19936;-65
2024/01/04 00:22:06;;;;;;;;;;;19.50;62.70;;;;;;4996935;28;19929;-65
2024/01/04 00:24:32;;;;;;;;;;;19.50;62.70;;;;;;5015584;28;19932;-66
2024/01/04 00:26:57;;;;;;;;;;;19.50;62.70;;;;;;5034526;28;19952;-66
2024/01/04 00:29:23;;;;;;;;;;;19.50;62.60;;;;;;5034710;28;19972;-66
2024/01/04 00:31:48;;;;;;;;;;;19.50;62.60;;;;;;5014368;28;19980;-65
2024/01/04 00:34:14;;;;;;;;;;;19.50;62.60;;;;;;5014827;28;19929;-65
2024/01/04 00:36:39;;;;;;;;;;;19.50;62.70;;;;;;5014702;28;20427;-65
2024/01/04 00:39:06;;;;;;;;;;;19.50;62.60;;;;;;5014846;28;19926;-66
2024/01/04 00:41:32;;;;;;;;;;;19.50;62.60;;;;;;4996660;28;20389;-66
2024/01/04 00:43:57;;;;;;;;;;;19.40;62.60;;;;;;4997382;28;19966;-66
2024/01/04 00:46:23;;;;;;;;;;;19.40;62.50;;;;;;4997617;28;19979;-66
2024/01/04 00:48:49;;;;;;;;;;;19.40;62.50;;;;;;4996646;28;19964;-66
2024/01/04 00:51:14;;;;;;;;;;;19.40;62.50;;;;;;5014511;28;20016;-65
2024/01/04 00:53:40;;;;;;;;;;;19.40;62.50;;;;;;4997120;28;20016;-66
2024/01/04 00:56:05;;;;;;;;;;;19.40;62.50;;;;;;4996682;28;20404;-66
2024/01/04 00:58:31;;;;;;;;;;;19.40;62.50;;;;;;5014252;28;19960;-65
2024/01/04 01:00:57;;;;;;;;;;;19.40;62.50;;;;;;4996828;28;19971;-66
2024/01/04 01:03:23;;;;;;;;;;;19.40;62.50;;;;;;5014158;28;19925;-66
2024/01/04 01:05:48;;;;;;;;;;;19.40;62.50;;;;;;4997598;28;19926;-66
2024/01/04 01:08:15;;;;;;;;;;;19.30;62.40;;;;;;5014065;28;19932;-66
2024/01/04 01:10:41;;;;;;;;;;;19.30;62.40;;;;;;5013982;28;19925;-65
2024/01/04 01:13:06;;;;;;;;;;;19.30;62.50;;;;;;4996175;28;20040;-65
2024/01/04 01:15:32;;;;;;;;;;;19.30;62.40;;;;;;5014109;28;19979;-66
2024/01/04 01:17:57;;;;;;;;;;;19.30;62.40;;;;;;4995964;28;19931;-66
2024/01/04 01:20:23;;;;;;;;;;;19.30;62.40;;;;;;5014300;28;19925;-65
2024/01/04 01:22:48;;;;;;;;;;;19.30;62.40;;;;;;5014238;28;19932;-66
2024/01/04 01:25:14;;;;;;;;;;;19.30;62.40;;;;;;4995865;28;20297;-66
2024/01/04 01:27:39;;;;;;;;;;;19.30;62.40;;;;;;4996546;28;20032;-66
2024/01/04 01:30:05;;;;;;;;;;;19.30;62.30;;;;;;5013726;28;19976;-66
2024/01/04 01:32:30;;;;;;;;;;;19.20;62.30;;;;;;5017131;28;19929;-66
2024/01/04 01:34:57;;;;;;;;;;;19.20;62.30;;;;;;5016016;28;19947;-66
2024/01/04 01:37:23;;;;;;;;;;;19.20;62.30;;;;;;5016120;28;20291;-65
2024/01/04 01:39:48;;;;;;;;;;;19.20;62.20;;;;;;5015586;28;20432;-65
2024/01/04 01:42:15;;;;;;;;;;;19.20;62.20;;;;;;5033311;28;19925;-66
2024/01/04 01:44:41;;;;;;;;;;;19.20;62.20;;;;;;5015679;28;19925;-66
2024/01/04 01:47:06;;;;;;;;;;;19.20;62.30;;;;;;5032714;28;20028;-66
2024/01/04 01:49:32;;;;;;;;;;;19.20;62.20;;;;;;5033551;28;19955;-66
2024/01/04 01:51:57;;;;;;;;;;;19.20;62.20;;;;;;5032723;28;19925;-66
2024/01/04 01:54:23;;;;;;;;;;;19.20;62.20;;;;;;4999434;28;19925;-65
2024/01/04 01:56:48;;;;;;;;;;;19.10;62.10;;;;;;5015734;28;19925;-66
2024/01/04 01:59:14;;;;;;;;;;;19.20;62.20;;;;;;5015001;28;20022;-66
2024/01/04 02:01:39;;;;;;;;;;;19.20;62.20;;;;;;5033639;28;19925;-65
2024/01/04 02:04:05;;;;;;;;;;;19.10;62.10;;;;;;5015120;28;20368;-66
2024/01/04 02:06:30;;;;;;;;;;;19.10;62.10;;;;;;5015543;28;19925;-66
2024/01/04 02:08:56;;;;;;;;;;;19.10;62.10;;;;;;5032631;28;19932;-66
2024/01/04 02:11:22;;;;;;;;;;;19.10;62.10;;;;;;5015036;28;20296;-65
2024/01/04 02:13:48;;;;;;;;;;;19.10;62.10;;;;;;5032989;28;20374;-66
2024/01/04 02:16:14;;;;;;;;;;;19.10;62.10;;;;;;5032959;28;20016;-65
2024/01/04 02:18:39;;;;;;;;;;;19.10;62.10;;;;;;5033271;28;19925;-66
2024/01/04 02:21:05;;;;;;;;;;;19.10;62.10;;;;;;5031768;28;20368;-66
2024/01/04 02:23:31;;;;;;;;;;;19.10;62.00;;;;;;5015510;28;20336;-66
2024/01/04 02:25:56;;;;;;;;;;;19.00;62.00;;;;;;5014864;28;19972;-66
2024/01/04 02:28:22;;;;;;;;;;;19.10;62.00;;;;;;5015189;28;19929;-66
2024/01/04 02:30:47;;;;;;;;;;;19.00;62.00;;;;;;5027126;28;19925;-66
2024/01/04 02:33:13;;;;;;;;;;;19.00;62.00;;;;;;4995619;28;19925;-66
2024/01/04 02:35:38;;;;;;;;;;;19.00;62.00;;;;;;5012722;28;20296;-66
2024/01/04 02:38:04;;;;;;;;;;;19.00;62.00;;;;;;4995450;28;19972;-66
2024/01/04 02:40:29;;;;;;;;;;;19.00;61.90;;;;;;4995412;28;19925;-66
2024/01/04 02:42:55;;;;;;;;;;;19.00;62.00;;;;;;4994813;28;19972;-66
2024/01/04 02:45:20;;;;;;;;;;;19.00;61.90;;;;;;4995850;28;19932;-66
2024/01/04 02:47:46;;;;;;;;;;;19.00;61.90;;;;;;5013100;28;19929;-66
2024/01/04 02:50:12;;;;;;;;;;;19.00;61.90;;;;;;4995099;28;19975;-66
2024/01/04 02:52:37;;;;;;;;;;;19.00;61.90;;;;;;4995900;28;19926;-66
2024/01/04 02:55:03;;;;;;;;;;;19.00;61.90;;;;;;4995243;28;19925;-66
2024/01/04 02:57:28;;;;;;;;;;;19.00;61.90;;;;;;4995518;28;19932;-66
2024/01/04 02:59:54;;;;;;;;;;;19.00;61.90;;;;;;4997222;28;20024;-65
2024/01/04 03:02:19;;;;;;;;;;;19.00;61.90;;;;;;4995147;28;19925;-65
2024/01/04 03:04:45;;;;;;;;;;;19.00;61.90;;;;;;4994818;28;19975;-66
2024/01/04 03:07:10;;;;;;;;;;;18.90;61.80;;;;;;4995247;28;19930;-66
2024/01/04 03:09:36;;;;;;;;;;;18.90;61.80;;;;;;5012649;28;20368;-66
2024/01/04 03:12:02;;;;;;;;;;;18.90;61.80;;;;;;4994948;28;19969;-66
2024/01/04 03:14:28;;;;;;;;;;;18.90;61.80;;;;;;4995101;28;19955;-66
2024/01/04 03:16:53;;;;;;;;;;;18.90;61.80;;;;;;5012167;28;19926;-66
2024/01/04 03:19:19;;;;;;;;;;;18.90;61.70;;;;;;4995480;28;19975;-66
2024/01/04 03:21:45;;;;;;;;;;;18.90;61.80;;;;;;5014881;28;20004;-66
2024/01/04 03:24:11;;;;;;;;;;;18.90;61.80;;;;;;5015871;28;20335;-66
2024/01/04 03:26:36;;;;;;;;;;;18.90;61.70;;;;;;4999213;28;20016;-67
2024/01/04 03:29:02;;;;;;;;;;;18.90;61.70;;;;;;4998251;28;19929;-66
2024/01/04 03:31:27;;;;;;;;;;;18.90;61.80;;;;;;4998530;28;20034;-66
2024/01/04 03:33:53;;;;;;;;;;;18.90;61.80;;;;;;4998368;28;20392;-66
2024/01/04 03:36:19;;;;;;;;;;;18.90;61.70;;;;;;5016056;28;20451;-66
2024/01/04 03:38:45;;;;;;;;;;;18.90;61.70;;;;;;4997968;28;20012;-66
2024/01/04 03:41:10;;;;;;;;;;;18.90;61.70;;;;;;5015858;28;20340;-66
2024/01/04 03:43:36;;;;;;;;;;;18.90;61.70;;;;;;5016125;28;19925;-66
2024/01/04 03:46:04;;;;;;;;;;;18.90;61.70;;;;;;5015314;28;20023;-66
2024/01/04 03:48:29;;;;;;;;;;;18.90;61.70;;;;;;4998701;28;20329;-66
2024/01/04 03:50:54;;;;;;;;;;;18.90;61.70;;;;;;4998009;28;20009;-66
2024/01/04 03:53:20;;;;;;;;;;;18.90;61.70;;;;;;5015281;28;19925;-66
2024/01/04 03:55:45;;;;;;;;;;;18.90;61.60;;;;;;4998447;28;19976;-66
2024/01/04 03:58:11;;;;;;;;;;;18.90;61.60;;;;;;5015339;28;19929;-66
2024/01/04 04:00:36;;;;;;;;;;;18.90;61.60;;;;;;5015222;28;19932;-66
2024/01/04 04:03:02;;;;;;;;;;;19.00;61.60;;;;;;5015276;28;19929;-66
2024/01/04 04:05:27;;;;;;;;;;;19.00;61.60;;;;;;5015254;28;19926;-66
2024/01/04 04:07:53;;;;;;;;;;;19.00;61.60;;;;;;5014896;28;19948;-66
2024/01/04 04:10:19;;;;;;;;;;;19.00;61.60;;;;;;4981942;28;19930;-66
2024/01/04 04:12:44;;;;;;;;;;;19.00;61.60;;;;;;5015348;28;20546;-66
2024/01/04 04:15:09;;;;;;;;;;;19.00;61.60;;;;;;5005259;28;20422;-66
2024/01/04 04:17:35;;;;;;;;;;;19.00;61.60;;;;;;5035168;28;19925;-67
2024/01/04 04:20:00;;;;;;;;;;;19.00;61.60;;;;;;5034343;28;19925;-66
2024/01/04 04:22:26;;;;;;;;;;;19.00;61.60;;;;;;5034961;28;19948;-66
2024/01/04 04:24:51;;;;;;;;;;;19.00;61.50;;;;;;5034175;28;20390;-66
2024/01/04 04:27:17;;;;;;;;;;;19.00;61.50;;;;;;5016830;28;20018;-66
2024/01/04 04:29:42;;;;;;;;;;;19.00;61.50;;;;;;5017577;28;19947;-66
2024/01/04 04:32:08;;;;;;;;;;;19.00;61.40;;;;;;5015906;28;19925;-66
2024/01/04 04:34:34;;;;;;;;;;;19.00;61.40;;;;;;5034494;28;19991;-66
2024/01/04 04:36:59;;;;;;;;;;;19.10;61.50;;;;;;5034460;28;19925;-66
2024/01/04 04:39:25;;;;;;;;;;;19.10;61.50;;;;;;5034605;28;19925;-66
2024/01/04 04:41:50;;;;;;;;;;;19.10;61.40;;;;;;5034603;28;19925;-66
2024/01/04 04:44:16;;;;;;;;;;;19.10;61.40;;;;;;5016629;28;20380;-66
2024/01/04 04:46:41;;;;;;;;;;;19.10;61.40;;;;;;5034808;28;20098;-66
2024/01/04 04:49:07;;;;;;;;;;;19.10;61.40;;;;;;5034011;28;20384;-66
2024/01/04 04:51:33;;;;;;;;;;;19.10;61.40;;;;;;5034448;28;19990;-66
2024/01/04 04:53:58;;;;;;;;;;;19.20;61.40;;;;;;5034006;28;19925;-66
2024/01/04 04:56:24;;;;;;;;;;;19.20;61.40;;;;;;5016328;28;19964;-66
2024/01/04 04:58:49;;;;;;;;;;;19.20;61.30;;;;;;5016675;28;19936;-66
2024/01/04 05:01:15;;;;;;;;;;;19.20;61.30;;;;;;5007650;28;19976;-66
2024/01/04 05:03:40;;;;;;;;;;;19.20;61.30;;;;;;5033776;28;19960;-66
2024/01/04 05:06:07;;;;;;;;;;;19.30;61.30;;;;;;5015711;28;19925;-66
2024/01/04 05:08:32;;;;;;;;;;;19.30;61.30;;;;;;5034173;28;19929;-66
2024/01/04 05:10:58;;;;;;;;;;;19.30;61.30;;;;;;5033537;28;20015;-66
2024/01/04 05:13:23;;;;;;;;;;;19.30;61.30;;;;;;5016515;28;20280;-66
2024/01/04 05:15:49;;;;;;;;;;;19.30;61.20;;;;;;5033768;28;19972;-66
2024/01/04 05:18:14;;;;;;;;;;;19.40;61.30;;;;;;5016450;28;19995;-66
2024/01/04 05:20:40;;;;;;;;;;;19.40;61.30;;;;;;5033133;28;20395;-66
2024/01/04 05:23:07;;;;;;;;;;;19.40;61.20;;;;;;5033472;28;19932;-66
2024/01/04 05:25:33;;;;;;;;;;;19.40;61.20;;;;;;5034256;28;19929;-66
2024/01/04 05:27:58;;;;;;;;;;;19.40;61.20;;;;;;5016032;28;19932;-66
2024/01/04 05:30:24;;;;;;;;;;;19.40;61.20;;;;;;5015960;28;19925;-66
2024/01/04 05:32:49;;;;;;;;;;;19.40;61.20;;;;;;5033886;28;20280;-66
2024/01/04 05:35:15;;;;;;;;;;;19.50;61.20;;;;;;5015740;28;19948;-66
2024/01/04 05:37:40;;;;;;;;;;;19.50;61.20;;;;;;5033425;28;19929;-65
2024/01/04 05:40:09;;;;;;;;;;;19.50;61.20;;;;;;5015941;28;19925;-66
2024/01/04 05:42:34;;;;;;;;;;;19.50;61.20;;;;;;5033735;28;20340;-66
2024/01/04 05:45:00;;;;;;;;;;;19.50;61.20;;;;;;5014954;28;20380;-66
2024/01/04 05:47:26;;;;;;;;;;;19.50;61.10;;;;;;5033588;28;19960;-66
2024/01/04 05:49:51;;;;;;;;;;;19.50;61.10;;;;;;5033124;28;19931;-66
2024/01/04 05:52:17;;;;;;;;;;;19.50;61.10;;;;;;5033223;28;19931;-66
2024/01/04 05:54:42;;;;;;;;;;;19.50;61.10;;;;;;5015914;28;19928;-66
2024/01/04 05:57:08;;;;;;;;;;;19.50;61.10;;;;;;5033284;28;19929;-66
2024/01/04 05:59:33;;;;;;;;;;;19.60;61.10;;;;;;5015132;28;20394;-66
2024/01/04 06:01:59;;;;;;;;;;;19.50;61.00;;;;;;5032865;28;20013;-66
2024/01/04 06:04:25;;;;;;;;;;;19.60;61.10;;;;;;5015459;28;20342;-66
2024/01/04 06:06:50;;;;;;;;;;;19.60;61.10;;;;;;5032743;28;19943;-66
2024/01/04 06:09:20;;;;;;;;;;;19.60;61.10;;;;;;5015353;28;19932;-66
2024/01/04 06:11:46;;;;;;;;;;;19.60;61.00;;;;;;5033573;28;19931;-66
2024/01/04 06:14:12;;;;;;;;;;;19.60;61.10;;;;;;5032701;28;19936;-66
2024/01/04 06:16:37;;;;;;;;;;;19.60;61.00;;;;;;5033229;28;19947;-66
2024/01/04 06:19:03;;;;;;;;;;;19.60;61.10;;;;;;5014880;28;20301;-66
2024/01/04 06:21:29;;;;;;;;;;;19.60;61.00;;;;;;5015351;28;20020;-66
2024/01/04 06:23:54;;;;;;;;;;;19.60;61.00;;;;;;5032956;28;20032;-66
2024/01/04 06:26:20;;;;;;;;;;;19.60;60.90;;;;;;5014897;28;20376;-66
2024/01/04 06:28:46;;;;;;;;;;;19.70;61.00;;;;;;5033042;28;20008;-66
2024/01/04 06:31:11;;;;;;;;;;;19.70;61.00;;;;;;5014923;28;19929;-66
2024/01/04 06:33:37;;;;;;;;;;;19.60;60.90;;;;;;5032327;28;20015;-66
2024/01/04 06:36:02;;;;;;;;;;;19.70;60.90;;;;;;5032881;28;19929;-66
2024/01/04 06:38:28;;;;;;;;;;;19.70;61.00;;;;;;5015393;28;19932;-66
2024/01/04 06:40:57;;;;;;;;;;;19.70;61.00;;;;;;5014513;28;19948;-66
2024/01/04 06:43:23;;;;;;;;;;;19.70;60.90;;;;;;5032954;28;19929;-66
2024/01/04 06:45:49;;;;;;;;;;;19.70;61.00;;;;;;5032641;28;19925;-66
2024/01/04 06:48:14;;;;;;;;;;;19.70;60.90;;;;;;5014409;28;19929;-66
2024/01/04 06:50:39;;;;;;;;;;;19.70;60.90;;;;;;5015052;28;19925;-66
2024/01/04 06:53:05;;;;;;;;;;;19.70;60.90;;;;;;5032429;28;19932;-66
2024/01/04 06:55:30;;;;;;;;;;;19.70;60.90;;;;;;5031165;28;20291;-65
2024/01/04 06:57:56;;;;;;;;;;;19.70;60.80;;;;;;5018746;28;19925;-66
2024/01/04 07:00:23;;;;;;;;;;;19.70;60.90;;;;;;5032916;28;19969;-66
2024/01/04 07:02:48;;;;;;;;;;;19.70;60.80;;;;;;5004935;28;20012;-66
2024/01/04 07:05:14;;;;;;;;;;;19.80;60.90;;;;;;5016286;28;20012;-66
2024/01/04 07:07:39;;;;;;;;;;;19.70;60.80;;;;;;4999402;28;20048;-66
2024/01/04 07:10:05;;;;;;;;;;;19.70;60.80;;;;;;5012151;28;19925;-66
2024/01/04 07:12:31;;;;;;;;;;;19.70;60.80;;;;;;5036448;28;19969;-66
2024/01/04 07:14:56;;;;;;;;;;;19.80;60.90;;;;;;5036102;28;19995;-66
2024/01/04 07:17:22;;;;;;;;;;;19.80;60.80;;;;;;5018101;28;20391;-66
2024/01/04 07:19:48;;;;;;;;;;;19.80;60.90;;;;;;5035933;28;19928;-66
2024/01/04 07:22:15;;;;;;;;;;;19.80;60.80;;;;;;5035939;28;20439;-66
2024/01/04 07:24:41;;;;;;;;;;;19.80;60.90;;;;;;5018318;28;19925;-66
2024/01/04 07:27:07;;;;;;;;;;;19.80;60.80;;;;;;5018110;28;19932;-66
2024/01/04 07:29:32;;;;;;;;;;;19.80;61.50;;;;;;5035636;28;20346;-66
2024/01/04 07:31:58;;;;;;;;;;;19.80;60.90;;;;;;5018087;28;20463;-66
2024/01/04 07:34:23;;;;;;;;;;;19.80;60.80;;;;;;5035961;28;19929;-65
2024/01/04 07:36:50;;;;;;;;;;;19.80;60.90;;;;;;5017739;28;20300;-65
2024/01/04 07:39:15;;;;;;;;;;;19.80;60.80;;;;;;5018043;28;19972;-65
2024/01/04 07:41:42;;;;;;;;;;;19.80;60.70;;;;;;5035948;28;19956;-65
2024/01/04 07:44:08;;;;;;;;;;;19.80;60.70;;;;;;5035416;28;19971;-65
2024/01/04 07:46:34;;;;;;;;;;;19.80;60.70;;;;;;5036024;28;19929;-65
2024/01/04 07:48:59;;;;;;;;;;;19.80;60.70;;;;;;5035508;28;19935;-65
2024/01/04 07:51:24;;;;;;;;;;;19.80;60.70;;;;;;5017413;28;20429;-65
2024/01/04 07:53:50;;;;;;;;;;;19.80;60.70;;;;;;5018042;28;20011;-64
2024/01/04 07:56:16;;;;;;;;;;;19.90;60.80;;;;;;5017737;28;19948;-65
2024/01/04 07:58:41;;;;;;;;;;;19.90;60.80;;;;;;5035124;28;19968;-65
2024/01/04 08:01:07;;;;;;;;;;;19.90;60.80;;;;;;5035133;28;19925;-65
2024/01/04 08:03:32;;;;;;;;;;;19.90;60.80;;;;;;5017277;28;19929;-65
2024/01/04 08:05:58;;;;;;;;;;;19.80;60.80;;;;;;5016895;28;19932;-69
2024/01/04 08:08:24;;;;;;;;;;;19.90;60.80;;;;;;5017588;28;19925;-64
2024/01/04 08:10:49;;;;;;;;;;;19.90;60.90;;;;;;5035285;28;19925;-64
2024/01/04 08:13:16;;;;;;;;;;;19.90;60.90;;;;;;5034494;28;19925;-65
2024/01/04 08:15:42;;;;;;;;;;;19.90;60.90;;;;;;5017319;28;20035;-66
2024/01/04 08:18:07;;;;;;;;;;;19.90;61.10;;;;;;5035053;28;19999;-66
2024/01/04 08:20:33;;;;;;;;;;;19.90;61.10;;;;;;5034348;28;19936;-66
2024/01/04 08:22:59;;;;;;;;;;;19.90;61.20;;;;;;5017385;28;19925;-65
2024/01/04 08:25:24;;;;;;;;;;;19.90;61.40;;;;;;5017627;28;20395;-67
2024/01/04 08:27:50;;;;;;;;;;;19.90;61.40;;;;;;5017152;28;19925;-65
2024/01/04 08:30:15;;;;;;;;;;;19.90;61.90;;;;;;5034475;28;19925;-65
2024/01/04 08:32:41;;;;;;;;;;;19.90;61.30;;;;;;5034896;28;19969;-65
2024/01/04 08:35:06;;;;;;;;;;;19.90;61.30;;;;;;5016801;28;20399;-65
2024/01/04 08:37:32;;;;;;;;;;;19.90;61.40;;;;;;5016566;28;19932;-64
2024/01/04 08:39:57;;;;;;;;;;;19.90;61.50;;;;;;5033861;28;19933;-66
2024/01/04 08:42:23;;;;;;;;;;;19.90;61.70;;;;;;5034806;28;19925;-66
2024/01/04 08:44:48;;;;;;;;;;;20.00;61.80;;;;;;5017123;28;20343;-72
2024/01/04 08:47:14;;;;;;;;;;;20.00;61.80;;;;;;5015983;28;19929;-65
2024/01/04 08:49:39;;;;;;;;;;;20.00;61.70;;;;;;5017024;28;20019;-65
2024/01/04 08:52:05;;;;;;;;;;;20.00;61.60;;;;;;5034315;28;19928;-65
2024/01/04 08:54:31;;;;;;;;;;;20.00;61.70;;;;;;5016092;28;20392;-67
2024/01/04 08:56:56;;;;;;;;;;;20.00;61.60;;;;;;5016731;28;20372;-66
2024/01/04 08:59:22;;;;;;;;;;;20.00;61.60;;;;;;5034279;28;19925;-66
2024/01/04 09:01:48;;;;;;;;;;;20.00;61.50;;;;;;5033745;28;19925;-66
2024/01/04 09:04:13;;;;;;;;;;;20.00;61.40;;;;;;5034411;28;19928;-66
2024/01/04 09:06:39;;;;;;;;;;;20.00;61.40;;;;;;5034215;28;19948;-66
2024/01/04 09:09:07;;;;;;;;;;;20.00;61.40;;;;;;5015746;28;19925;-67
2024/01/04 09:11:38;;;;;;;;;;;20.00;61.30;;;;;;5034544;28;19932;-66
2024/01/04 09:14:07;;;;;;;;;;;20.00;61.40;;;;;;5033617;28;20003;-66
2024/01/04 09:16:34;;;;;;;;;;;20.00;61.30;;;;;;5033652;28;19928;-66
2024/01/04 09:19:00;;;;;;;;;;;20.00;61.30;;;;;;5033150;28;19925;-66
2024/01/04 09:21:26;;;;;;;;;;;20.00;61.30;;;;;;5033940;28;19925;-66
2024/01/04 09:23:52;;;;;;;;;;;20.00;61.30;;;;;;5033476;28;19925;-66
2024/01/04 09:26:18;;;;;;;;;;;20.00;61.30;;;;;;5034087;28;20411;-66
2024/01/04 09:28:43;;;;;;;;;;;20.00;61.30;;;;;;5016223;28;19925;-66
2024/01/04 09:31:09;;;;;;;;;;;20.00;61.30;;;;;;5015666;28;19925;-66
2024/01/04 09:33:35;;;;;;;;;;;20.00;61.30;;;;;;5016031;28;20312;-66
2024/01/04 09:36:00;;;;;;;;;;;20.00;61.20;;;;;;5015489;28;20407;-66
2024/01/04 09:38:27;;;;;;;;;;;20.00;61.30;;;;;;5034014;28;20283;-66
2024/01/04 09:40:55;;;;;;;;;;;20.00;61.30;;;;;;5033229;28;19925;-66
2024/01/04 09:43:20;;;;;;;;;;;20.00;61.20;;;;;;4999144;28;20056;-66
2024/01/04 09:45:46;;;;;;;;;;;20.00;61.20;;;;;;4999640;28;20007;-66
2024/01/04 09:48:11;;;;;;;;;;;20.00;61.10;;;;;;4999412;28;19929;-66
2024/01/04 09:50:38;;;;;;;;;;;20.00;61.10;;;;;;4999217;28;19925;-66
2024/01/04 09:53:03;;;;;;;;;;;20.00;61.10;;;;;;4999814;28;20407;-66
2024/01/04 09:55:30;;;;;;;;;;;20.00;61.10;;;;;;5033657;28;19925;-66
2024/01/04 09:57:56;;;;;;;;;;;20.00;61.00;;;;;;5014973;28;19932;-66
2024/01/04 10:00:22;;;;;;;;;;;19.90;61.00;;;;;;5032882;28;19925;-66
2024/01/04 10:02:49;;;;;;;;;;;20.00;61.00;;;;;;5015324;28;19932;-66
2024/01/04 10:05:15;;;;;;;;;;;20.00;61.00;;;;;;5015351;28;19925;-66
2024/01/04 10:07:44;;;;;;;;;;;20.00;60.90;;;;;;5033351;28;19925;-70
2024/01/04 10:10:16;;;;;;;;;;;20.00;60.80;;;;;;5015183;28;20051;-66
2024/01/04 10:12:42;;;;;;;;;;;20.00;60.50;;;;;;5015093;28;19925;-67
2024/01/04 10:15:11;;;;;;;;;;;20.00;60.20;;;;;;5032068;28;19925;-68
2024/01/04 10:17:37;;;;;;;;;;;20.00;60.10;;;;;;5032789;28;20376;-69
2024/01/04 10:20:04;;;;;;;;;;;20.00;60.10;;;;;;5031868;28;19925;-64
2024/01/04 10:22:29;;;;;;;;;;;20.00;60.00;;;;;;5032429;28;19932;-65
2024/01/04 10:25:05;;;;;;;;;;;20.00;60.00;;;;;;5032543;28;20019;-65
2024/01/04 10:27:30;;;;;;;;;;;20.00;59.90;;;;;;4997262;28;19926;-66
2024/01/04 10:30:01;;;;;;;;;;;20.00;59.70;;;;;;5032100;28;20315;-66
2024/01/04 10:32:27;;;;;;;;;;;20.00;59.50;;;;;;5014887;28;20403;-66
2024/01/04 10:34:52;;;;;;;;;;;20.00;59.50;;;;;;5011802;28;20012;-66
2024/01/04 10:37:18;;;;;;;;;;;20.00;59.10;;;;;;5018847;28;19929;-66
2024/01/04 10:39:57;;;;;;;;;;;20.00;59.10;;;;;;5035911;28;19975;-66
2024/01/04 10:42:23;;;;;;;;;;;20.00;59.00;;;;;;5036966;28;19956;-65
2024/01/04 10:44:52;;;;;;;;;;;20.00;59.00;;;;;;5036665;28;20327;-66
2024/01/04 10:47:17;;;;;;;;;;;20.00;59.10;;;;;;5036695;28;19925;-65
2024/01/04 10:49:44;;;;;;;;;;;20.00;59.30;;;;;;5036013;28;19938;-65
2024/01/04 10:52:12;;;;;;;;;;;20.00;59.60;;;;;;5036357;28;19925;-65
2024/01/04 10:54:38;;;;;;;;;;;20.00;59.70;;;;;;5036542;28;19925;-65
2024/01/04 10:57:03;;;;;;;;;;;20.00;59.60;;;;;;5002499;28;19925;-65
2024/01/04 10:59:29;;;;;;;;;;;20.00;59.60;;;;;;5036680;28;19978;-65
2024/01/04 11:01:56;;;;;;;;;;;20.00;59.60;;;;;;5018300;28;19925;-66
2024/01/04 11:04:22;;;;;;;;;;;20.00;59.70;;;;;;5036567;28;20403;-65
2024/01/04 11:06:48;;;;;;;;;;;20.00;59.80;;;;;;5036847;28;19925;-65
2024/01/04 11:09:13;;;;;;;;;;;20.00;59.80;;;;;;5001788;28;19936;-66
2024/01/04 11:11:39;;;;;;;;;;;20.00;59.90;;;;;;5036413;28;19925;-64
2024/01/04 11:14:05;;;;;;;;;;;20.10;60.00;;;;;;5002417;28;19932;-66
2024/01/04 11:16:30;;;;;;;;;;;20.10;60.00;;;;;;5035939;28;20431;-65
2024/01/04 11:19:16;;;;;;;;;;;20.10;60.00;;;;;;5018102;28;19972;-66
2024/01/04 11:22:01;;;;;;;;;;;20.10;60.00;;;;;;4978196;28;19932;-67
2024/01/04 11:24:33;;;;;;;;;;;20.10;59.90;;;;;;5036667;28;19931;-67
2024/01/04 11:26:59;;;;;;;;;;;20.10;59.80;;;;;;5036077;28;20434;-67
2024/01/04 11:29:25;;;;;;;;;;;20.10;59.80;;;;;;5035125;28;19929;-67
2024/01/04 11:31:50;;;;;;;;;;;20.10;59.70;;;;;;5018768;28;19925;-66
2024/01/04 11:34:16;;;;;;;;;;;20.10;59.70;;;;;;5017884;28;20394;-66
2024/01/04 11:36:41;;;;;;;;;;;20.10;59.70;;;;;;5035627;28;20435;-66
2024/01/04 11:39:07;;;;;;;;;;;20.10;59.70;;;;;;5014098;28;20423;-66
2024/01/04 11:41:36;;;;;;;;;;;20.10;59.70;;;;;;5015850;28;20520;-66
2024/01/04 11:44:02;;;;;;;;;;;20.10;59.80;;;;;;5015423;28;19925;-67
2024/01/04 11:46:27;;;;;;;;;;;20.10;59.80;;;;;;4998320;28;19937;-66
2024/01/04 11:48:53;;;;;;;;;;;20.10;59.70;;;;;;5016124;28;19933;-66
2024/01/04 11:51:30;;;;;;;;;;;20.10;59.80;;;;;;5015498;28;20361;-66
2024/01/04 11:53:55;;;;;;;;;;;20.10;59.80;;;;;;5015620;28;19926;-67
2024/01/04 11:56:21;;;;;;;;;;;20.20;59.80;;;;;;4997887;28;19983;-66
2024/01/04 11:58:46;;;;;;;;;;;20.10;59.80;;;;;;5035391;28;19960;-66
2024/01/04 12:01:12;;;;;;;;;;;20.20;59.90;;;;;;5034578;28;19925;-66
2024/01/04 12:03:38;;;;;;;;;;;20.20;59.90;;;;;;5035626;28;19968;-65
2024/01/04 12:06:04;;;;;;;;;;;20.20;59.90;;;;;;5013337;28;19956;-65
2024/01/04 12:08:29;;;;;;;;;;;20.20;60.00;;;;;;5001075;28;20311;-66
2024/01/04 12:10:56;;;;;;;;;;;20.20;60.10;;;;;;5034777;28;20066;-66
2024/01/04 12:13:21;;;;;;;;;;;20.20;60.10;;;;;;5035493;28;19925;-66
2024/01/04 12:15:47;;;;;;;;;;;20.20;60.10;;;;;;5035097;28;20030;-66
2024/01/04 12:18:12;;;;;;;;;;;20.20;60.10;;;;;;5019657;28;19935;-67
2024/01/04 12:20:38;;;;;;;;;;;20.20;60.20;;;;;;5054632;28;19931;-67
2024/01/04 12:23:06;;;;;;;;;;;20.20;60.20;;;;;;5054663;28;19928;-64
2024/01/04 12:25:35;;;;;;;;;;;20.20;60.20;;;;;;5036978;28;20438;-65
2024/01/04 12:28:01;;;;;;;;;;;20.20;60.30;;;;;;5036769;28;19939;-65
2024/01/04 12:30:26;;;;;;;;;;;20.20;60.30;;;;;;5043945;28;19925;-65
2024/01/04 12:32:51;;;;;;;;;;;20.20;60.30;;;;;;5016675;28;20316;-66
2024/01/04 12:35:17;;;;;;;;;;;20.20;60.30;;;;;;5034109;28;19926;-66
2024/01/04 12:37:42;;;;;;;;;;;20.20;60.20;;;;;;5034221;28;19924;-66
2024/01/04 12:40:10;;;;;;;;;;;20.20;60.10;;;;;;5015159;28;19957;-66
2024/01/04 12:42:36;;;;;;;;;;;20.20;60.00;;;;;;5034308;28;20450;-66
2024/01/04 12:45:03;;;;;;;;;;;20.20;60.00;;;;;;5034517;28;19931;-66
2024/01/04 12:47:30;;;;;;;;;;;20.20;60.00;;;;;;5034574;28;19925;-66
2024/01/04 12:49:56;;;;;;;;;;;20.20;60.00;;;;;;5034254;28;20002;-66
2024/01/04 12:52:22;;;;;;;;;;;20.20;60.00;;;;;;5034695;28;20008;-66
2024/01/04 12:54:48;;;;;;;;;;;20.20;60.00;;;;;;5033550;28;19925;-66
2024/01/04 12:57:13;;;;;;;;;;;20.20;60.00;;;;;;5016619;28;19933;-66
2024/01/04 12:59:39;;;;;;;;;;;20.20;60.00;;;;;;5034437;28;19925;-66
2024/01/04 13:02:04;;;;;;;;;;;20.20;60.00;;;;;;4995789;28;19964;-66
2024/01/04 13:04:30;;;;;;;;;;;20.20;59.90;;;;;;5024546;28;19926;-66
2024/01/04 13:06:56;;;;;;;;;;;20.20;60.00;;;;;;5014558;28;19926;-66
2024/01/04 13:09:21;;;;;;;;;;;20.20;60.00;;;;;;4996763;28;19926;-66
2024/01/04 13:11:47;;;;;;;;;;;20.20;60.00;;;;;;5014321;28;20269;-66
2024/01/04 13:14:12;;;;;;;;;;;20.20;59.90;;;;;;5013673;28;20012;-66
2024/01/04 13:16:37;;;;;;;;;;;20.20;60.00;;;;;;5014473;28;20019;-66
2024/01/04 13:19:03;;;;;;;;;;;20.20;59.90;;;;;;5014158;28;19936;-66
2024/01/04 13:21:29;;;;;;;;;;;20.20;59.90;;;;;;5013627;28;19925;-66
2024/01/04 13:23:54;;;;;;;;;;;20.20;59.90;;;;;;4996495;28;19925;-66
2024/01/04 13:26:20;;;;;;;;;;;20.20;59.90;;;;;;5014141;28;19964;-66
2024/01/04 13:28:45;;;;;;;;;;;20.20;59.90;;;;;;5013787;28;19926;-67
2024/01/04 13:31:11;;;;;;;;;;;20.20;59.90;;;;;;4996485;28;19936;-66
2024/01/04 13:33:36;;;;;;;;;;;20.20;59.80;;;;;;5013952;28;19925;-66
2024/01/04 13:36:02;;;;;;;;;;;20.20;59.90;;;;;;5013053;28;20281;-66
2024/01/04 13:38:28;;;;;;;;;;;20.20;59.70;;;;;;5013838;28;19925;-67
2024/01/04 13:40:53;;;;;;;;;;;20.20;59.00;;;;;;5013735;28;20388;-66
2024/01/04 13:43:20;;;;;;;;;;;20.20;59.10;;;;;;5012943;28;20298;-66
2024/01/04 13:45:46;;;;;;;;;;;20.20;59.10;;;;;;5013849;28;20027;-67
2024/01/04 13:48:12;;;;;;;;;;;20.20;59.20;;;;;;4996069;28;20292;-66
2024/01/04 13:50:37;;;;;;;;;;;20.20;59.20;;;;;;4995339;28;19932;-66
2024/01/04 13:53:06;;;;;;;;;;;20.20;59.20;;;;;;5000274;28;19925;-66
2024/01/04 13:55:31;;;;;;;;;;;20.20;59.20;;;;;;5027478;28;19925;-66
2024/01/04 13:57:57;;;;;;;;;;;20.20;59.30;;;;;;5014515;28;19932;-66
2024/01/04 14:00:22;;;;;;;;;;;20.20;59.30;;;;;;5032880;28;19929;-65
2024/01/04 14:02:48;;;;;;;;;;;20.20;59.40;;;;;;5014051;28;19925;-66
2024/01/04 14:05:15;;;;;;;;;;;20.20;59.30;;;;;;5032228;28;19929;-66
2024/01/04 14:07:40;;;;;;;;;;;20.20;59.40;;;;;;5030207;28;19925;-67